Time;durP1;ratioP1;P1;durP2;ratioP2;P2;SDS_P1;SDS_P2;PMS_P1;PMS_P2;Temp;Humidity;BMP_temperature;BMP_pressure;BME280_temperature;BME280_humidity;BME280_pressure;Samples;Min_cycle;Max_cycle;Signal;HPM_P1;HPM_P2
2023/12/19 00:00:44;;;;;;;10.82;8.73;;;;;;;;;;5058626;28;20193;-78
2023/12/19 00:03:11;;;;;;;15.68;8.77;;;;;;;;;;5058705;28;20208;-77
2023/12/19 00:05:37;;;;;;;9.93;7.63;;;;;;;;;;5060245;28;20173;-78
2023/12/19 00:08:03;;;;;;;11.43;9.07;;;;;;;;;;5062251;28;20538;-78
2023/12/19 00:10:29;;;;;;;9.25;8.23;;;;;;;;;;5063176;28;20553;-78
2023/12/19 00:12:55;;;;;;;13.20;8.05;;;;;;;;;;5066364;28;20192;-78
2023/12/19 00:15:22;;;;;;;18.15;11.95;;;;;;;;;;5082017;28;20192;-78
2023/12/19 00:17:48;;;;;;;14.55;10.00;;;;;;;;;;5072442;28;20197;-78
2023/12/19 00:20:14;;;;;;;14.23;10.13;;;;;;;;;;5062639;28;20291;-79
2023/12/19 00:22:40;;;;;;;23.02;13.52;;;;;;;;;;5061351;28;20651;-78
2023/12/19 00:25:06;;;;;;;14.07;9.82;;;;;;;;;;5062576;28;20172;-78
2023/12/19 00:27:32;;;;;;;12.77;9.32;;;;;;;;;;5062997;28;20272;-78
2023/12/19 00:29:58;;;;;;;10.52;8.55;;;;;;;;;;5062332;28;20185;-78
2023/12/19 00:32:24;;;;;;;11.07;7.88;;;;;;;;;;5062627;28;20174;-79
2023/12/19 00:34:50;;;;;;;8.67;7.10;;;;;;;;;;5062374;28;20642;-78
2023/12/19 00:37:16;;;;;;;12.63;8.30;;;;;;;;;;5062972;28;20495;-78
2023/12/19 00:39:42;;;;;;;9.00;6.87;;;;;;;;;;5062567;28;20404;-80
2023/12/19 00:42:08;;;;;;;12.37;9.00;;;;;;;;;;5062766;28;20428;-78
2023/12/19 00:44:37;;;;;;;7.30;6.10;;;;;;;;;;5062015;28;20511;-79
2023/12/19 00:47:03;;;;;;;8.38;6.00;;;;;;;;;;5046459;28;20429;-78
2023/12/19 00:49:30;;;;;;;9.95;6.22;;;;;;;;;;5061618;28;20169;-79
2023/12/19 00:51:56;;;;;;;9.13;7.00;;;;;;;;;;5062061;28;20177;-78
2023/12/19 00:54:22;;;;;;;7.15;6.45;;;;;;;;;;5062167;28;20252;-79
2023/12/19 00:56:48;;;;;;;8.48;6.50;;;;;;;;;;5062225;28;20183;-79
2023/12/19 00:59:14;;;;;;;8.93;7.03;;;;;;;;;;5063116;28;20185;-78
2023/12/19 01:01:40;;;;;;;9.18;5.88;;;;;;;;;;5061730;28;20510;-78
2023/12/19 01:04:06;;;;;;;9.60;6.90;;;;;;;;;;5061810;28;20280;-78
2023/12/19 01:06:32;;;;;;;7.60;6.05;;;;;;;;;;5061159;28;20431;-78
2023/12/19 01:08:58;;;;;;;8.93;6.47;;;;;;;;;;5061468;28;20276;-80
2023/12/19 01:11:24;;;;;;;8.93;6.18;;;;;;;;;;5061896;28;20575;-78
2023/12/19 01:13:50;;;;;;;8.70;6.18;;;;;;;;;;5061614;28;20209;-79
2023/12/19 01:16:16;;;;;;;7.53;6.40;;;;;;;;;;5061076;28;20186;-79
2023/12/19 01:18:42;;;;;;;8.38;6.32;;;;;;;;;;5061841;28;20205;-78
2023/12/19 01:21:08;;;;;;;9.07;6.47;;;;;;;;;;5061764;28;20177;-78
2023/12/19 01:23:34;;;;;;;8.00;6.10;;;;;;;;;;5063125;28;20207;-78
2023/12/19 01:26:01;;;;;;;7.73;6.73;;;;;;;;;;5061256;28;20426;-78
2023/12/19 01:28:27;;;;;;;8.55;5.85;;;;;;;;;;5062159;28;20424;-77
2023/12/19 01:30:53;;;;;;;6.80;5.53;;;;;;;;;;5060884;28;20207;-78
2023/12/19 01:33:19;;;;;;;7.73;5.60;;;;;;;;;;5061281;28;20404;-78
2023/12/19 01:35:45;;;;;;;7.60;6.30;;;;;;;;;;5059192;28;20427;-83
2023/12/19 01:38:12;;;;;;;6.95;5.80;;;;;;;;;;5061259;28;20459;-79
2023/12/19 01:40:38;;;;;;;7.65;5.85;;;;;;;;;;5061577;28;20705;-78
2023/12/19 01:43:15;;;;;;;7.77;4.97;;;;;;;;;;5062201;28;20210;-78
2023/12/19 01:45:41;;;;;;;7.57;5.32;;;;;;;;;;5061723;28;20436;-79
2023/12/19 01:48:07;;;;;;;7.30;5.33;;;;;;;;;;5061928;28;20181;-78
2023/12/19 01:50:33;;;;;;;7.50;5.70;;;;;;;;;;5060821;28;20464;-78
2023/12/19 01:52:59;;;;;;;6.63;5.53;;;;;;;;;;5061006;28;20225;-78
2023/12/19 01:55:27;;;;;;;6.88;5.45;;;;;;;;;;5061113;28;20412;-79
2023/12/19 01:57:54;;;;;;;6.18;5.18;;;;;;;;;;5060456;28;20224;-78
2023/12/19 02:00:20;;;;;;;6.72;6.03;;;;;;;;;;5060477;28;20177;-78
2023/12/19 02:02:47;;;;;;;7.15;5.80;;;;;;;;;;5059149;28;20182;-83
2023/12/19 02:05:13;;;;;;;12.63;7.97;;;;;;;;;;5060079;28;20196;-78
2023/12/19 02:07:39;;;;;;;7.65;6.40;;;;;;;;;;5059592;28;20209;-78
2023/12/19 02:10:06;;;;;;;6.35;5.20;;;;;;;;;;5059880;28;20201;-78
2023/12/19 02:12:32;;;;;;;5.25;4.75;;;;;;;;;;5060588;28;20185;-79
2023/12/19 02:14:58;;;;;;;8.80;5.65;;;;;;;;;;5059453;28;20229;-78
2023/12/19 02:17:24;;;;;;;7.05;5.28;;;;;;;;;;5059585;28;20211;-78
2023/12/19 02:19:54;;;;;;;7.07;5.43;;;;;;;;;;5060111;28;20251;-79
2023/12/19 02:22:20;;;;;;;5.97;4.75;;;;;;;;;;5060868;28;20607;-78
2023/12/19 02:24:46;;;;;;;6.07;4.85;;;;;;;;;;5060398;28;20198;-78
2023/12/19 02:27:13;;;;;;;6.27;5.20;;;;;;;;;;5060199;28;20189;-78
2023/12/19 02:29:39;;;;;;;6.10;5.07;;;;;;;;;;5060323;28;20467;-78
2023/12/19 02:32:05;;;;;;;5.50;4.43;;;;;;;;;;5060316;28;20182;-79
2023/12/19 02:34:31;;;;;;;6.47;5.28;;;;;;;;;;5059613;28;20446;-78
2023/12/19 02:36:57;;;;;;;5.83;4.60;;;;;;;;;;5063233;28;20222;-78
2023/12/19 02:39:23;;;;;;;5.13;4.63;;;;;;;;;;5058523;28;20451;-78
2023/12/19 02:41:49;;;;;;;6.40;4.55;;;;;;;;;;5059318;28;20175;-83
2023/12/19 02:44:15;;;;;;;6.07;4.72;;;;;;;;;;5059655;28;20197;-78
2023/12/19 02:46:41;;;;;;;5.47;4.82;;;;;;;;;;5059738;28;20177;-78
2023/12/19 02:49:07;;;;;;;6.05;4.88;;;;;;;;;;5059816;28;20530;-78
2023/12/19 02:51:33;;;;;;;4.80;4.00;;;;;;;;;;5060493;28;20198;-78
2023/12/19 02:53:59;;;;;;;4.43;4.00;;;;;;;;;;5059104;28;20878;-79
2023/12/19 02:56:27;;;;;;;4.60;4.07;;;;;;;;;;5058400;28;20448;-78
2023/12/19 02:58:53;;;;;;;4.47;3.95;;;;;;;;;;5058144;28;20514;-78
2023/12/19 03:01:19;;;;;;;4.90;3.97;;;;;;;;;;5058597;28;20193;-79
2023/12/19 03:03:45;;;;;;;5.57;4.00;;;;;;;;;;5058295;28;20414;-78
2023/12/19 03:06:14;;;;;;;5.20;4.00;;;;;;;;;;5058144;28;20414;-78
2023/12/19 03:08:45;;;;;;;4.10;3.70;;;;;;;;;;5058151;28;20173;-78
2023/12/19 03:11:11;;;;;;;7.38;4.03;;;;;;;;;;5058855;28;20219;-78
2023/12/19 03:13:37;;;;;;;5.00;3.97;;;;;;;;;;5059002;28;20187;-79
2023/12/19 03:16:03;;;;;;;7.10;4.70;;;;;;;;;;5057465;28;20420;-78
2023/12/19 03:18:29;;;;;;;5.43;4.90;;;;;;;;;;5058137;28;20468;-78
2023/12/19 03:20:55;;;;;;;5.23;4.73;;;;;;;;;;5058643;28;20243;-78
2023/12/19 03:23:21;;;;;;;4.72;4.22;;;;;;;;;;5058029;28;20475;-78
2023/12/19 03:25:48;;;;;;;4.68;4.10;;;;;;;;;;5058896;28;20195;-78
2023/12/19 03:28:14;;;;;;;3.72;3.05;;;;;;;;;;5057023;28;20185;-78
2023/12/19 03:30:40;;;;;;;4.28;3.42;;;;;;;;;;5057991;28;20174;-78
2023/12/19 03:33:06;;;;;;;5.23;3.43;;;;;;;;;;5057972;28;20517;-78
2023/12/19 03:35:32;;;;;;;4.60;3.47;;;;;;;;;;5058231;28;20419;-79
2023/12/19 03:37:58;;;;;;;5.30;3.80;;;;;;;;;;5057697;28;20212;-79
2023/12/19 03:40:24;;;;;;;3.65;3.30;;;;;;;;;;5057927;28;20704;-78
2023/12/19 03:42:50;;;;;;;3.58;3.20;;;;;;;;;;5058513;28;20272;-78
2023/12/19 03:45:16;;;;;;;4.17;2.80;;;;;;;;;;5057604;28;20196;-78
2023/12/19 03:47:42;;;;;;;10.10;6.33;;;;;;;;;;5058536;28;20433;-78
2023/12/19 03:50:09;;;;;;;5.63;4.35;;;;;;;;;;5057379;28;20973;-78
2023/12/19 03:52:35;;;;;;;5.35;4.53;;;;;;;;;;5058471;28;20217;-79
2023/12/19 03:55:01;;;;;;;7.75;4.28;;;;;;;;;;5057671;28;20187;-78
2023/12/19 03:57:27;;;;;;;3.72;2.92;;;;;;;;;;5058294;28;20257;-78
2023/12/19 03:59:54;;;;;;;5.32;3.05;;;;;;;;;;5057591;28;20191;-83
2023/12/19 04:02:20;;;;;;;5.05;3.42;;;;;;;;;;5058437;28;20181;-78
2023/12/19 04:04:46;;;;;;;4.55;2.90;;;;;;;;;;5057817;28;20185;-78
2023/12/19 04:07:12;;;;;;;4.25;3.25;;;;;;;;;;5057653;28;20537;-78
2023/12/19 04:09:38;;;;;;;3.33;2.83;;;;;;;;;;5058306;28;20184;-78
2023/12/19 04:12:06;;;;;;;3.80;3.03;;;;;;;;;;5057744;28;20184;-78
2023/12/19 04:14:32;;;;;;;3.33;2.65;;;;;;;;;;5057978;28;20431;-78
2023/12/19 04:16:58;;;;;;;3.30;2.55;;;;;;;;;;5057966;28;20220;-78
2023/12/19 04:19:24;;;;;;;3.00;2.58;;;;;;;;;;5057465;28;20217;-78
2023/12/19 04:21:50;;;;;;;2.65;2.45;;;;;;;;;;5056750;28;20183;-78
2023/12/19 04:24:17;;;;;;;3.25;2.70;;;;;;;;;;5057807;28;20186;-78
2023/12/19 04:26:43;;;;;;;2.67;2.10;;;;;;;;;;5057628;28;20269;-78
2023/12/19 04:29:09;;;;;;;2.38;2.08;;;;;;;;;;5057609;28;20205;-79
2023/12/19 04:31:35;;;;;;;2.92;2.42;;;;;;;;;;5057737;28;20187;-78
2023/12/19 04:34:02;;;;;;;2.88;2.42;;;;;;;;;;5057605;28;20181;-78
2023/12/19 04:36:28;;;;;;;2.45;2.10;;;;;;;;;;5057846;28;20183;-79
2023/12/19 04:38:54;;;;;;;2.90;2.60;;;;;;;;;;5057581;28;20201;-78
2023/12/19 04:41:20;;;;;;;3.10;2.67;;;;;;;;;;5057773;28;20181;-78
2023/12/19 04:43:46;;;;;;;3.93;2.70;;;;;;;;;;5058038;28;20196;-78
2023/12/19 04:46:12;;;;;;;2.40;2.20;;;;;;;;;;5057437;28;20423;-78
2023/12/19 04:48:38;;;;;;;3.08;2.75;;;;;;;;;;5057012;28;20419;-78
2023/12/19 04:51:04;;;;;;;3.42;2.95;;;;;;;;;;5057499;28;20215;-78
2023/12/19 04:53:31;;;;;;;11.32;8.65;;;;;;;;;;5061034;28;20252;-78
2023/12/19 04:55:57;;;;;;;17.85;11.40;;;;;;;;;;5062168;28;20186;-82
2023/12/19 04:58:22;;;;;;;29.98;19.02;;;;;;;;;;5062023;28;20197;-79
2023/12/19 05:00:51;;;;;;;25.03;15.60;;;;;;;;;;5061366;28;20189;-78
2023/12/19 05:03:17;;;;;;;7.25;5.57;;;;;;;;;;5061157;28;20879;-78
2023/12/19 05:05:43;;;;;;;6.00;4.00;;;;;;;;;;5061808;28;20602;-78
2023/12/19 05:08:10;;;;;;;5.22;4.72;;;;;;;;;;5062064;28;20420;-77
2023/12/19 05:10:36;;;;;;;4.80;3.58;;;;;;;;;;5061820;28;20230;-78
2023/12/19 05:13:03;;;;;;;4.70;3.17;;;;;;;;;;5061384;28;20264;-78
2023/12/19 05:15:32;;;;;;;9.10;6.68;;;;;;;;;;5060988;28;20182;-78
2023/12/19 05:17:58;;;;;;;7.20;6.00;;;;;;;;;;5061124;28;20559;-82
2023/12/19 05:20:24;;;;;;;4.00;3.60;;;;;;;;;;5062232;28;20260;-78
2023/12/19 05:22:50;;;;;;;4.20;3.72;;;;;;;;;;5061201;28;20419;-78
2023/12/19 05:25:16;;;;;;;4.70;3.23;;;;;;;;;;5061164;28;20238;-78
2023/12/19 05:27:43;;;;;;;3.30;2.97;;;;;;;;;;5061180;28;20517;-78
2023/12/19 05:30:10;;;;;;;3.33;3.03;;;;;;;;;;5061186;28;20513;-78
2023/12/19 05:32:36;;;;;;;4.00;3.53;;;;;;;;;;5060581;28;20643;-78
2023/12/19 05:35:03;;;;;;;6.90;3.17;;;;;;;;;;5060501;28;20211;-78
2023/12/19 05:37:29;;;;;;;3.92;2.53;;;;;;;;;;5061101;28;21052;-78
2023/12/19 05:39:55;;;;;;;3.50;3.10;;;;;;;;;;5060740;28;20180;-78
2023/12/19 05:42:21;;;;;;;4.05;3.17;;;;;;;;;;5060134;28;20419;-78
2023/12/19 05:44:47;;;;;;;6.83;3.10;;;;;;;;;;5061371;28;20184;-78
2023/12/19 05:47:13;;;;;;;4.10;3.10;;;;;;;;;;5060185;28;20526;-78
2023/12/19 05:49:39;;;;;;;3.72;3.33;;;;;;;;;;5061319;28;20257;-78
2023/12/19 05:52:06;;;;;;;4.30;2.70;;;;;;;;;;5060962;28;20225;-78
2023/12/19 05:54:33;;;;;;;4.55;3.28;;;;;;;;;;5060699;28;20238;-78
2023/12/19 05:56:59;;;;;;;3.60;2.88;;;;;;;;;;5060011;28;20181;-78
2023/12/19 05:59:25;;;;;;;3.80;2.78;;;;;;;;;;5059859;28;20247;-79
2023/12/19 06:01:51;;;;;;;4.55;3.05;;;;;;;;;;5061004;28;20276;-78
2023/12/19 06:04:17;;;;;;;4.20;2.88;;;;;;;;;;5061802;28;20170;-78
2023/12/19 06:06:44;;;;;;;3.63;3.30;;;;;;;;;;5060415;28;20307;-78
2023/12/19 06:09:13;;;;;;;3.05;2.60;;;;;;;;;;5059141;28;20421;-78
2023/12/19 06:11:39;;;;;;;2.88;2.65;;;;;;;;;;5060698;28;20188;-78
2023/12/19 06:14:05;;;;;;;3.80;3.13;;;;;;;;;;5059901;28;20636;-79
2023/12/19 06:16:31;;;;;;;3.30;3.00;;;;;;;;;;5059904;28;20237;-78
2023/12/19 06:18:57;;;;;;;2.55;2.35;;;;;;;;;;5060521;28;20215;-78
2023/12/19 06:21:23;;;;;;;2.90;2.30;;;;;;;;;;5058014;28;20272;-78
2023/12/19 06:23:49;;;;;;;2.57;2.03;;;;;;;;;;5056474;28;20427;-83
2023/12/19 06:26:15;;;;;;;3.10;2.40;;;;;;;;;;5055814;28;20908;-83
2023/12/19 06:28:42;;;;;;;2.75;2.08;;;;;;;;;;5056269;28;20459;-81
2023/12/19 06:31:08;;;;;;;3.05;2.33;;;;;;;;;;5056384;28;20182;-82
2023/12/19 06:33:36;;;;;;;2.57;2.37;;;;;;;;;;5055852;28;20607;-81
2023/12/19 06:36:02;;;;;;;3.03;2.10;;;;;;;;;;5055215;28;20473;-81
2023/12/19 06:38:29;;;;;;;2.58;2.17;;;;;;;;;;5055378;28;20244;-81
2023/12/19 06:40:54;;;;;;;4.57;2.75;;;;;;;;;;5056193;28;20181;-81
2023/12/19 06:43:21;;;;;;;8.47;2.90;;;;;;;;;;5056801;28;20258;-81
2023/12/19 06:45:47;;;;;;;3.58;2.60;;;;;;;;;;5056631;28;20906;-80
2023/12/19 06:48:13;;;;;;;2.43;2.23;;;;;;;;;;5056797;28;20231;-80
2023/12/19 06:50:40;;;;;;;3.45;2.53;;;;;;;;;;5056732;28;20427;-80
2023/12/19 06:53:06;;;;;;;1.98;1.70;;;;;;;;;;5056491;28;20228;-81
2023/12/19 06:55:31;;;;;;;2.57;1.60;;;;;;;;;;5056902;28;20174;-80
2023/12/19 06:57:58;;;;;;;2.00;1.80;;;;;;;;;;5056611;28;20467;-80
2023/12/19 07:00:28;;;;;;;1.90;1.80;;;;;;;;;;5055084;28;20456;-80
2023/12/19 07:02:53;;;;;;;3.30;2.15;;;;;;;;;;5056752;28;20245;-80
2023/12/19 07:05:19;;;;;;;3.03;2.30;;;;;;;;;;5055313;28;20211;-80
2023/12/19 07:07:51;;;;;;;2.87;2.10;;;;;;;;;;5056504;28;20434;-80
2023/12/19 07:10:17;;;;;;;2.25;1.90;;;;;;;;;;5056365;28;20457;-80
2023/12/19 07:12:43;;;;;;;3.83;2.00;;;;;;;;;;5056618;28;20593;-80
2023/12/19 07:15:09;;;;;;;2.10;1.55;;;;;;;;;;5056018;28;20437;-81
2023/12/19 07:17:35;;;;;;;2.70;2.00;;;;;;;;;;5056873;28;20348;-80
2023/12/19 07:20:02;;;;;;;3.53;1.75;;;;;;;;;;5056595;28;20213;-80
2023/12/19 07:22:28;;;;;;;1.67;1.33;;;;;;;;;;5056735;28;20548;-80
2023/12/19 07:24:55;;;;;;;3.07;1.87;;;;;;;;;;5056575;28;20237;-80
2023/12/19 07:27:21;;;;;;;2.70;2.05;;;;;;;;;;5055964;28;20444;-80
2023/12/19 07:29:47;;;;;;;2.13;1.63;;;;;;;;;;5056533;28;20601;-80
2023/12/19 07:32:13;;;;;;;2.67;1.50;;;;;;;;;;5054853;28;20485;-80
2023/12/19 07:34:40;;;;;;;1.50;1.40;;;;;;;;;;5056626;28;20180;-80
2023/12/19 07:37:06;;;;;;;2.15;1.50;;;;;;;;;;5056508;28;20411;-80
2023/12/19 07:39:32;;;;;;;2.10;1.40;;;;;;;;;;5056572;28;20619;-80
2023/12/19 07:41:58;;;;;;;1.48;1.23;;;;;;;;;;5056236;28;20173;-80
2023/12/19 07:44:24;;;;;;;3.33;1.70;;;;;;;;;;5056310;28;20607;-80
2023/12/19 07:46:50;;;;;;;3.13;1.50;;;;;;;;;;5056836;28;20879;-80
2023/12/19 07:49:16;;;;;;;2.00;1.73;;;;;;;;;;5056017;28;20767;-80
2023/12/19 07:51:43;;;;;;;3.63;1.93;;;;;;;;;;5056553;28;20404;-79
2023/12/19 07:54:09;;;;;;;3.05;1.50;;;;;;;;;;5056080;28;20435;-81
2023/12/19 07:56:40;;;;;;;1.70;1.60;;;;;;;;;;5056034;28;20188;-80
2023/12/19 07:59:06;;;;;;;3.78;1.60;;;;;;;;;;5056235;28;20200;-80
2023/12/19 08:01:32;;;;;;;5.30;2.30;;;;;;;;;;5055918;28;20541;-80
2023/12/19 08:03:59;;;;;;;3.70;1.70;;;;;;;;;;5056090;28;20591;-80
2023/12/19 08:06:25;;;;;;;1.65;1.40;;;;;;;;;;5055540;28;20574;-80
2023/12/19 08:08:52;;;;;;;2.60;2.13;;;;;;;;;;5056391;28;20177;-81
2023/12/19 08:11:18;;;;;;;2.47;1.77;;;;;;;;;;5055660;28;20637;-80
2023/12/19 08:13:44;;;;;;;5.40;1.90;;;;;;;;;;5055781;28;20178;-80
2023/12/19 08:16:10;;;;;;;3.45;2.20;;;;;;;;;;5055630;28;20268;-81
2023/12/19 08:18:36;;;;;;;3.50;1.70;;;;;;;;;;5055911;28;20198;-80
2023/12/19 08:21:05;;;;;;;3.00;2.27;;;;;;;;;;5055976;28;20181;-80
2023/12/19 08:23:31;;;;;;;2.65;1.90;;;;;;;;;;5055426;28;20451;-81
2023/12/19 08:25:57;;;;;;;2.90;1.93;;;;;;;;;;5055906;28;20638;-80
2023/12/19 08:28:23;;;;;;;2.07;1.83;;;;;;;;;;5059640;28;20416;-81
2023/12/19 08:30:49;;;;;;;2.73;2.10;;;;;;;;;;5059932;28;20422;-80
2023/12/19 08:33:15;;;;;;;3.08;2.10;;;;;;;;;;5059444;28;20466;-80
2023/12/19 08:35:41;;;;;;;2.43;2.10;;;;;;;;;;5059440;28;20177;-80
2023/12/19 08:38:07;;;;;;;3.28;2.42;;;;;;;;;;5059470;28;20545;-80
2023/12/19 08:40:33;;;;;;;2.90;2.60;;;;;;;;;;5059355;28;20191;-80
2023/12/19 08:42:59;;;;;;;3.90;2.30;;;;;;;;;;5059674;28;20872;-80
2023/12/19 08:45:26;;;;;;;4.80;2.28;;;;;;;;;;5059441;28;20459;-80
2023/12/19 08:47:53;;;;;;;3.58;2.08;;;;;;;;;;5059812;28;20197;-80
2023/12/19 08:50:19;;;;;;;4.13;2.45;;;;;;;;;;5059148;28;20182;-80
2023/12/19 08:52:47;;;;;;;2.70;1.90;;;;;;;;;;5059372;28;20264;-80
2023/12/19 08:55:13;;;;;;;6.53;2.05;;;;;;;;;;5059157;28;20207;-80
2023/12/19 08:57:45;;;;;;;2.35;2.00;;;;;;;;;;5059074;28;20597;-80
2023/12/19 09:00:20;;;;;;;6.05;1.90;;;;;;;;;;5059070;28;20200;-87
2023/12/19 09:02:46;;;;;;;2.20;1.73;;;;;;;;;;5059213;28;20627;-80
2023/12/19 09:05:13;;;;;;;2.55;2.00;;;;;;;;;;5057462;28;20240;-81
2023/12/19 09:07:39;;;;;;;2.42;2.22;;;;;;;;;;5059520;28;20650;-80
2023/12/19 09:10:06;;;;;;;4.65;2.25;;;;;;;;;;5059174;28;20174;-80
2023/12/19 09:12:33;;;;;;;4.07;1.80;;;;;;;;;;5059280;28;20209;-80
2023/12/19 09:14:59;;;;;;;5.55;3.25;;;;;;;;;;5058945;28;20322;-80
2023/12/19 09:17:25;;;;;;;7.40;3.72;;;;;;;;;;5058707;28;20209;-80
2023/12/19 09:19:51;;;;;;;5.13;3.30;;;;;;;;;;5058555;28;20527;-80
2023/12/19 09:22:17;;;;;;;5.05;1.88;;;;;;;;;;5059214;28;20404;-80
2023/12/19 09:24:43;;;;;;;3.60;2.10;;;;;;;;;;5059227;28;20547;-80
2023/12/19 09:27:09;;;;;;;4.07;2.10;;;;;;;;;;5059267;28;20416;-80
2023/12/19 09:29:35;;;;;;;2.17;1.93;;;;;;;;;;5060859;28;20896;-79
2023/12/19 09:32:02;;;;;;;4.07;2.40;;;;;;;;;;5059035;28;20757;-80
2023/12/19 09:34:29;;;;;;;2.53;2.10;;;;;;;;;;5058811;28;20435;-80
2023/12/19 09:36:55;;;;;;;2.13;1.30;;;;;;;;;;5061681;28;20185;-79
2023/12/19 09:39:21;;;;;;;1.70;1.50;;;;;;;;;;5058288;28;20212;-80
2023/12/19 09:41:47;;;;;;;2.22;2.03;;;;;;;;;;5058706;28;20502;-80
2023/12/19 09:44:13;;;;;;;2.13;1.50;;;;;;;;;;5058720;28;20629;-80
2023/12/19 09:46:40;;;;;;;3.45;1.40;;;;;;;;;;5058749;28;20511;-80
2023/12/19 09:49:09;;;;;;;2.58;1.40;;;;;;;;;;5060155;28;20181;-78
2023/12/19 09:51:37;;;;;;;3.42;1.83;;;;;;;;;;5063331;28;20278;-79
2023/12/19 09:54:04;;;;;;;5.45;1.90;;;;;;;;;;5058471;28;20225;-80
2023/12/19 09:56:30;;;;;;;4.35;1.40;;;;;;;;;;5057896;28;20177;-80
2023/12/19 09:58:57;;;;;;;5.35;1.92;;;;;;;;;;5058208;28;20208;-79
2023/12/19 10:01:22;;;;;;;3.45;1.42;;;;;;;;;;5057731;28;20268;-80
2023/12/19 10:03:50;;;;;;;6.83;2.40;;;;;;;;;;5057978;28;20224;-79
2023/12/19 10:06:18;;;;;;;4.57;2.00;;;;;;;;;;5058210;28;20435;-84
2023/12/19 10:08:44;;;;;;;4.60;2.20;;;;;;;;;;5057867;28;20284;-80
2023/12/19 10:11:17;;;;;;;6.47;2.17;;;;;;;;;;5057363;28;20231;-80
2023/12/19 10:13:43;;;;;;;8.43;1.70;;;;;;;;;;5057309;28;20176;-80
2023/12/19 10:16:11;;;;;;;3.07;1.80;;;;;;;;;;5057439;28;20183;-80
2023/12/19 10:18:38;;;;;;;4.15;2.33;;;;;;;;;;5057680;28;20459;-80
2023/12/19 10:21:04;;;;;;;2.35;1.75;;;;;;;;;;5057777;28;20174;-79
2023/12/19 10:23:31;;;;;;;2.85;1.73;;;;;;;;;;5057206;28;20171;-80
2023/12/19 10:25:57;;;;;;;3.47;1.90;;;;;;;;;;5056937;28;20236;-79
2023/12/19 10:28:23;;;;;;;4.87;1.90;;;;;;;;;;5056648;28;20272;-80
2023/12/19 10:30:49;;;;;;;8.33;2.43;;;;;;;;;;5057009;28;20400;-80
2023/12/19 10:33:15;;;;;;;5.28;1.83;;;;;;;;;;5056282;28;20420;-80
2023/12/19 10:35:45;;;;;;;5.60;2.27;;;;;;;;;;5056840;28;20185;-79
2023/12/19 10:38:11;;;;;;;5.55;1.70;;;;;;;;;;5056753;28;20458;-80
2023/12/19 10:40:38;;;;;;;5.30;1.77;;;;;;;;;;5056562;28;20181;-79
2023/12/19 10:43:04;;;;;;;4.82;2.05;;;;;;;;;;5056683;28;20178;-80
2023/12/19 10:45:30;;;;;;;6.22;2.53;;;;;;;;;;5056003;28;20188;-80
2023/12/19 10:47:57;;;;;;;6.32;2.30;;;;;;;;;;5056447;28;20186;-79
2023/12/19 10:50:23;;;;;;;4.65;1.98;;;;;;;;;;5055551;28;20192;-80
2023/12/19 10:52:51;;;;;;;7.57;1.90;;;;;;;;;;5056554;28;20233;-79
2023/12/19 10:55:18;;;;;;;5.20;2.25;;;;;;;;;;5056253;28;20965;-80
2023/12/19 10:57:47;;;;;;;3.67;1.83;;;;;;;;;;5056373;28;20205;-80
2023/12/19 11:00:21;;;;;;;3.25;1.88;;;;;;;;;;5056725;28;20186;-79
2023/12/19 11:02:57;;;;;;;3.20;1.70;;;;;;;;;;5056664;28;20203;-79
2023/12/19 11:05:29;;;;;;;9.50;2.10;;;;;;;;;;5056361;28;20188;-80
2023/12/19 11:07:58;;;;;;;6.93;2.13;;;;;;;;;;5056170;28;20208;-80
2023/12/19 11:10:24;;;;;;;6.10;2.10;;;;;;;;;;5055829;28;20195;-80
2023/12/19 11:12:51;;;;;;;6.90;1.92;;;;;;;;;;5056074;28;20264;-80
2023/12/19 11:15:17;;;;;;;7.03;1.80;;;;;;;;;;5056200;28;20178;-80
2023/12/19 11:17:43;;;;;;;8.55;2.13;;;;;;;;;;5056269;28;20201;-80
2023/12/19 11:20:17;;;;;;;6.20;1.70;;;;;;;;;;5056835;28;20246;-80
2023/12/19 11:23:02;;;;;;;6.65;2.00;;;;;;;;;;5056001;28;20962;-80
2023/12/19 11:25:35;;;;;;;7.82;1.73;;;;;;;;;;5056104;28;20215;-80
2023/12/19 11:28:02;;;;;;;1.38;1.20;;;;;;;;;;5055956;28;20268;-80
2023/12/19 11:30:36;;;;;;;7.03;1.67;;;;;;;;;;5055695;28;20177;-80
2023/12/19 11:33:05;;;;;;;10.32;1.50;;;;;;;;;;5056080;28;20541;-80
2023/12/19 11:35:32;;;;;;;12.40;2.47;;;;;;;;;;5055796;28;20625;-80
2023/12/19 11:38:17;;;;;;;8.57;1.88;;;;;;;;;;5055517;28;20605;-80
2023/12/19 11:40:49;;;;;;;10.95;2.10;;;;;;;;;;5055861;28;20195;-80
2023/12/19 11:43:28;;;;;;;4.60;1.48;;;;;;;;;;5055749;28;20169;-80
2023/12/19 11:45:54;;;;;;;7.70;2.28;;;;;;;;;;5055397;28;20250;-80
2023/12/19 11:48:39;;;;;;;7.03;1.50;;;;;;;;;;5055989;28;20189;-80
2023/12/19 11:51:07;;;;;;;8.65;2.00;;;;;;;;;;5055524;28;20272;-80
2023/12/19 11:53:33;;;;;;;12.90;1.92;;;;;;;;;;5055343;28;20229;-80
2023/12/19 11:56:08;;;;;;;9.50;2.10;;;;;;;;;;5055654;28;20170;-80
2023/12/19 11:58:34;;;;;;;8.10;1.70;;;;;;;;;;5055136;28;20458;-80
2023/12/19 12:01:01;;;;;;;6.18;1.70;;;;;;;;;;5059859;28;20185;-80
2023/12/19 12:03:27;;;;;;;5.03;1.10;;;;;;;;;;5062105;28;20173;-80
2023/12/19 12:05:54;;;;;;;4.82;1.90;;;;;;;;;;5061735;28;20173;-80
2023/12/19 12:08:20;;;;;;;5.88;2.50;;;;;;;;;;5062247;28;20177;-80
2023/12/19 12:10:57;;;;;;;10.90;3.92;;;;;;;;;;5061485;28;20203;-80
2023/12/19 12:13:24;;;;;;;10.35;3.67;;;;;;;;;;5061715;28;20188;-83
2023/12/19 12:15:52;;;;;;;10.23;3.38;;;;;;;;;;5061409;28;20653;-80
2023/12/19 12:18:18;;;;;;;3.97;2.25;;;;;;;;;;5061933;28;20204;-80
2023/12/19 12:20:44;;;;;;;4.93;1.45;;;;;;;;;;5062032;28;20181;-80
2023/12/19 12:23:10;;;;;;;3.00;1.80;;;;;;;;;;5061567;28;20174;-80
2023/12/19 12:25:38;;;;;;;9.93;2.30;;;;;;;;;;5061539;28;20404;-80
2023/12/19 12:28:07;;;;;;;8.07;2.30;;;;;;;;;;5061739;28;20513;-79
2023/12/19 12:30:33;;;;;;;7.15;1.50;;;;;;;;;;5061927;28;20178;-81
2023/12/19 12:33:01;;;;;;;6.00;1.80;;;;;;;;;;5061757;28;20227;-80
2023/12/19 12:35:35;;;;;;;5.22;1.83;;;;;;;;;;5061634;28;20407;-81
2023/12/19 12:38:01;;;;;;;7.97;1.95;;;;;;;;;;5061759;28;20230;-80
2023/12/19 12:40:28;;;;;;;13.90;3.13;;;;;;;;;;5061021;28;20215;-81
2023/12/19 12:43:14;;;;;;;5.35;2.70;;;;;;;;;;5061395;28;20181;-80
2023/12/19 12:45:41;;;;;;;7.07;2.85;;;;;;;;;;5061098;28;20201;-80
2023/12/19 12:48:13;;;;;;;4.53;2.67;;;;;;;;;;5061718;28;20649;-80
2023/12/19 12:50:40;;;;;;;11.32;1.85;;;;;;;;;;5061624;28;20260;-80
2023/12/19 12:53:12;;;;;;;5.93;1.85;;;;;;;;;;5061535;28;20248;-80
2023/12/19 12:55:38;;;;;;;10.38;2.13;;;;;;;;;;5061332;28;20227;-80
2023/12/19 12:58:04;;;;;;;3.70;1.80;;;;;;;;;;5061554;28;20226;-80
2023/12/19 13:00:30;;;;;;;6.10;2.00;;;;;;;;;;5061323;28;20408;-80
2023/12/19 13:02:56;;;;;;;2.63;1.57;;;;;;;;;;5061424;28;20404;-80
2023/12/19 13:05:23;;;;;;;2.23;1.50;;;;;;;;;;5061703;28;20408;-80
2023/12/19 13:07:50;;;;;;;2.75;2.00;;;;;;;;;;5060905;28;20922;-80
2023/12/19 13:10:16;;;;;;;5.30;1.85;;;;;;;;;;5061526;28;20181;-80
2023/12/19 13:12:43;;;;;;;4.10;2.20;;;;;;;;;;5058064;28;20211;-80
2023/12/19 13:15:09;;;;;;;3.70;2.25;;;;;;;;;;5057271;28;20970;-80
2023/12/19 13:17:35;;;;;;;3.63;2.17;;;;;;;;;;5057979;28;20742;-80
2023/12/19 13:20:03;;;;;;;7.83;2.50;;;;;;;;;;5057128;28;20189;-80
2023/12/19 13:22:29;;;;;;;2.28;1.35;;;;;;;;;;5058119;28;20414;-80
2023/12/19 13:24:55;;;;;;;5.47;3.63;;;;;;;;;;5065209;28;20157;-79
2023/12/19 13:27:21;;;;;;;4.40;2.43;;;;;;;;;;5051173;28;20522;-81
2023/12/19 13:29:46;;;;;;;2.47;1.60;;;;;;;;;;5057756;28;20428;-81
2023/12/19 13:32:12;;;;;;;5.00;1.77;;;;;;;;;;5058038;28;20765;-80
2023/12/19 13:34:39;;;;;;;2.63;1.70;;;;;;;;;;5058073;28;20766;-81
2023/12/19 13:37:05;;;;;;;5.72;1.80;;;;;;;;;;5058142;28;20195;-80
2023/12/19 13:39:31;;;;;;;2.70;2.03;;;;;;;;;;5057481;28;20585;-80
2023/12/19 13:42:00;;;;;;;4.38;1.73;;;;;;;;;;5058040;28;20405;-80
2023/12/19 13:44:26;;;;;;;3.13;2.25;;;;;;;;;;5057653;28;20281;-80
2023/12/19 13:46:52;;;;;;;4.63;2.57;;;;;;;;;;5057900;28;20212;-80
2023/12/19 13:49:19;;;;;;;3.20;1.33;;;;;;;;;;5057746;28;20468;-81
2023/12/19 13:51:45;;;;;;;3.47;1.60;;;;;;;;;;5056984;28;20396;-81
2023/12/19 13:54:11;;;;;;;4.13;2.33;;;;;;;;;;5057340;28;20188;-81
2023/12/19 13:56:37;;;;;;;2.13;1.60;;;;;;;;;;5056893;28;20492;-81
2023/12/19 13:59:04;;;;;;;1.52;1.27;;;;;;;;;;5056859;28;20462;-82
2023/12/19 14:01:31;;;;;;;1.50;1.40;;;;;;;;;;5056763;28;20177;-83
2023/12/19 14:03:57;;;;;;;3.85;2.28;;;;;;;;;;5056581;28;20534;-82
2023/12/19 14:06:23;;;;;;;6.23;3.20;;;;;;;;;;5056650;28;20219;-82
2023/12/19 14:08:49;;;;;;;3.80;1.93;;;;;;;;;;5056041;28;20411;-82
2023/12/19 14:11:15;;;;;;;3.00;2.17;;;;;;;;;;5056730;28;20760;-82
2023/12/19 14:13:42;;;;;;;4.80;2.60;;;;;;;;;;5056199;28;20803;-82
2023/12/19 14:16:10;;;;;;;6.63;3.17;;;;;;;;;;5056508;28;20185;-82
2023/12/19 14:18:36;;;;;;;8.90;5.35;;;;;;;;;;5056050;28;20217;-82
2023/12/19 14:21:02;;;;;;;20.17;8.65;;;;;;;;;;5056808;28;20317;-81
2023/12/19 14:23:28;;;;;;;11.75;5.60;;;;;;;;;;5055212;28;20181;-81
2023/12/19 14:25:53;;;;;;;5.80;2.80;;;;;;;;;;5056255;28;20174;-82
2023/12/19 14:28:19;;;;;;;5.83;4.00;;;;;;;;;;5056414;28;20901;-82
2023/12/19 14:30:46;;;;;;;4.70;3.30;;;;;;;;;;5055960;28;20833;-82
2023/12/19 14:33:12;;;;;;;6.32;3.35;;;;;;;;;;5056611;28;20532;-82
2023/12/19 14:35:38;;;;;;;6.07;3.30;;;;;;;;;;5056361;28;20530;-81
2023/12/19 14:38:04;;;;;;;3.65;2.83;;;;;;;;;;5056334;28;20204;-81